sensor_id;sensor_type;location;lat;lon;timestamp;pressure;altitude;pressure_sealevel;temperature;humidity
30614;BME280;17381;51.690;5.270;2023-04-21T00:02:10;101556.78;;;8.92;71.69
30614;BME280;17381;51.690;5.270;2023-04-21T00:04:54;101555.94;;;8.87;72.15
30614;BME280;17381;51.690;5.270;2023-04-21T00:53:29;101488.03;;;8.60;75.07
30614;BME280;17381;51.690;5.270;2023-04-21T00:59:48;101495.84;;;8.63;75.40
30614;BME280;17381;51.690;5.270;2023-04-21T01:03:07;101496.72;;;8.63;75.00
30614;BME280;17381;51.690;5.270;2023-04-21T01:06:15;101496.69;;;8.68;74.93
30614;BME280;17381;51.690;5.270;2023-04-21T01:17:29;101482.78;;;8.57;75.10
30614;BME280;17381;51.690;5.270;2023-04-21T01:20:14;101497.59;;;8.59;75.32
30614;BME280;17381;51.690;5.270;2023-04-21T01:23:39;101494.09;;;8.62;75.19
30614;BME280;17381;51.690;5.270;2023-04-21T01:26:22;101489.75;;;8.61;75.38
30614;BME280;17381;51.690;5.270;2023-04-21T01:29:24;101482.75;;;8.63;75.45
30614;BME280;17381;51.690;5.270;2023-04-21T01:32:30;101468.81;;;8.58;75.30
30614;BME280;17381;51.690;5.270;2023-04-21T01:35:17;101468.78;;;8.62;75.16
30614;BME280;17381;51.690;5.270;2023-04-21T01:37:57;101454.84;;;8.56;75.54
30614;BME280;17381;51.690;5.270;2023-04-21T01:40:57;101464.38;;;8.66;75.86
30614;BME280;17381;51.690;5.270;2023-04-21T01:44:11;101466.13;;;8.65;75.69
30614;BME280;17381;51.690;5.270;2023-04-21T02:10:38;101440.97;;;8.44;76.94
30614;BME280;17381;51.690;5.270;2023-04-21T02:14:06;101447.97;;;8.42;76.86
30614;BME280;17381;51.690;5.270;2023-04-21T02:17:17;101434.00;;;8.40;76.68
30614;BME280;17381;51.690;5.270;2023-04-21T02:32:18;101405.19;;;8.42;76.85
30614;BME280;17381;51.690;5.270;2023-04-21T02:35:25;101356.50;;;8.12;77.17
30614;BME280;17381;51.690;5.270;2023-04-21T02:38:42;101406.91;;;8.44;77.25
30614;BME280;17381;51.690;5.270;2023-04-21T02:41:48;101405.19;;;8.40;77.02
30614;BME280;17381;51.690;5.270;2023-04-21T02:44:44;101400.81;;;8.38;77.49
30614;BME280;17381;51.690;5.270;2023-04-21T02:47:35;101403.47;;;8.39;77.02
30614;BME280;17381;51.690;5.270;2023-04-21T02:50:22;101388.63;;;8.32;77.12
30614;BME280;17381;51.690;5.270;2023-04-21T02:53:03;101378.16;;;8.30;77.44
30614;BME280;17381;51.690;5.270;2023-04-21T02:56:12;101389.47;;;8.37;77.39
30614;BME280;17381;51.690;5.270;2023-04-21T02:59:19;101383.44;;;8.29;78.13
30614;BME280;17381;51.690;5.270;2023-04-21T03:02:14;101387.78;;;8.30;78.57
30614;BME280;17381;51.690;5.270;2023-04-21T03:05:10;101383.44;;;8.27;78.38
30614;BME280;17381;51.690;5.270;2023-04-21T03:08:12;101382.56;;;8.27;78.02
30614;BME280;17381;51.690;5.270;2023-04-21T03:11:22;101379.97;;;8.21;78.46
30614;BME280;17381;51.690;5.270;2023-04-21T03:14:24;101384.31;;;8.25;79.28
30614;BME280;17381;51.690;5.270;2023-04-21T03:17:42;101348.69;;;8.02;79.49
30614;BME280;17381;51.690;5.270;2023-04-21T03:20:28;101391.34;;;8.21;79.32
30614;BME280;17381;51.690;5.270;2023-04-21T03:23:37;101388.66;;;8.29;79.29
30614;BME280;17381;51.690;5.270;2023-04-21T03:26:51;101384.31;;;8.25;79.62
30614;BME280;17381;51.690;5.270;2023-04-21T03:29:40;101383.47;;;8.23;78.96
30614;BME280;17381;51.690;5.270;2023-04-21T03:32:30;101385.19;;;8.27;79.54
30614;BME280;17381;51.690;5.270;2023-04-21T03:35:45;101376.47;;;8.25;78.93
30614;BME280;17381;51.690;5.270;2023-04-21T03:38:55;101368.66;;;8.19;79.51
30614;BME280;17381;51.690;5.270;2023-04-21T03:42:15;101371.28;;;8.19;79.63
30614;BME280;17381;51.690;5.270;2023-04-21T03:45:22;101362.56;;;8.15;79.15
30614;BME280;17381;51.690;5.270;2023-04-21T03:48:17;101361.75;;;8.13;79.07
30614;BME280;17381;51.690;5.270;2023-04-21T03:51:13;101360.03;;;8.06;79.11
30614;BME280;17381;51.690;5.270;2023-04-21T04:05:54;101362.81;;;7.83;79.81
30614;BME280;17381;51.690;5.270;2023-04-21T04:08:49;101364.56;;;7.78;79.75
30614;BME280;17381;51.690;5.270;2023-04-21T04:11:58;101367.16;;;7.79;80.00
30614;BME280;17381;51.690;5.270;2023-04-21T04:14:54;101364.56;;;7.78;80.28
30614;BME280;17381;51.690;5.270;2023-04-21T04:17:55;101378.53;;;7.80;80.45
30614;BME280;17381;51.690;5.270;2023-04-21T04:21:19;101371.50;;;7.82;79.88
30614;BME280;17381;51.690;5.270;2023-04-21T04:24:05;101361.06;;;7.79;79.88
30614;BME280;17381;51.690;5.270;2023-04-21T04:27:42;101375.03;;;7.82;80.03
30614;BME280;17381;51.690;5.270;2023-04-21T04:34:21;101375.91;;;7.78;79.98
30614;BME280;17381;51.690;5.270;2023-04-21T04:56:33;101381.91;;;7.94;79.83
30614;BME280;17381;51.690;5.270;2023-04-21T04:59:31;101371.44;;;7.94;80.17
30614;BME280;17381;51.690;5.270;2023-04-21T05:25:15;101351.41;;;7.90;80.90
30614;BME280;17381;51.690;5.270;2023-04-21T05:28:28;101380.13;;;8.05;81.04
30614;BME280;17381;51.690;5.270;2023-04-21T05:34:35;101391.41;;;8.07;80.47
30614;BME280;17381;51.690;5.270;2023-04-21T06:09:02;101413.09;;;8.28;82.84
30614;BME280;17381;51.690;5.270;2023-04-21T06:12:11;101413.91;;;8.36;83.18
30614;BME280;17381;51.690;5.270;2023-04-21T06:18:48;101406.03;;;8.47;83.25
30614;BME280;17381;51.690;5.270;2023-04-21T06:21:37;101406.84;;;8.50;82.88
30614;BME280;17381;51.690;5.270;2023-04-21T06:40:21;101404.94;;;8.72;83.09
30614;BME280;17381;51.690;5.270;2023-04-21T06:43:12;101402.34;;;8.68;83.05
30614;BME280;17381;51.690;5.270;2023-04-21T06:46:14;101395.31;;;8.73;83.79
30614;BME280;17381;51.690;5.270;2023-04-21T06:48:57;101404.88;;;8.79;84.01
30614;BME280;17381;51.690;5.270;2023-04-21T07:03:46;101401.91;;;9.14;84.12
30614;BME280;17381;51.690;5.270;2023-04-21T07:06:33;101402.59;;;9.28;84.19
30614;BME280;17381;51.690;5.270;2023-04-21T07:13:18;101381.53;;;9.37;83.42
30614;BME280;17381;51.690;5.270;2023-04-21T07:16:15;101387.50;;;9.47;83.83
30614;BME280;17381;51.690;5.270;2023-04-21T07:19:20;101384.81;;;9.52;83.19
30614;BME280;17381;51.690;5.270;2023-04-21T07:22:28;101394.41;;;9.56;83.09
30614;BME280;17381;51.690;5.270;2023-04-21T07:25:12;101389.06;;;9.62;82.79
30614;BME280;17381;51.690;5.270;2023-04-21T07:27:41;101391.53;;;9.73;83.24
30614;BME280;17381;51.690;5.270;2023-04-21T07:30:13;101351.50;;;9.58;82.28
30614;BME280;17381;51.690;5.270;2023-04-21T07:32:57;101393.00;;;9.94;82.18
30614;BME280;17381;51.690;5.270;2023-04-21T07:35:50;101352.16;;;9.76;81.47
30614;BME280;17381;51.690;5.270;2023-04-21T07:38:42;101386.72;;;10.07;81.16
30614;BME280;17381;51.690;5.270;2023-04-21T07:41:35;101390.06;;;10.15;80.58
30614;BME280;17381;51.690;5.270;2023-04-21T07:44:27;101377.69;;;10.25;80.83
30614;BME280;17381;51.690;5.270;2023-04-21T07:47:19;101384.63;;;10.31;80.02
30614;BME280;17381;51.690;5.270;2023-04-21T07:50:01;101384.56;;;10.34;79.84
30614;BME280;17381;51.690;5.270;2023-04-21T07:52:41;101388.91;;;10.36;79.17
30614;BME280;17381;51.690;5.270;2023-04-21T07:55:32;101388.13;;;10.31;78.28
30614;BME280;17381;51.690;5.270;2023-04-21T07:58:22;101386.28;;;10.35;78.69
30614;BME280;17381;51.690;5.270;2023-04-21T08:01:27;101384.44;;;10.43;78.32
30614;BME280;17381;51.690;5.270;2023-04-21T08:04:33;101390.41;;;10.51;77.94
30614;BME280;17381;51.690;5.270;2023-04-21T08:07:26;101388.53;;;10.58;78.12
30614;BME280;17381;51.690;5.270;2023-04-21T08:10:04;101388.44;;;10.64;77.49
30614;BME280;17381;51.690;5.270;2023-04-21T08:13:33;101376.97;;;10.69;77.76
30614;BME280;17381;51.690;5.270;2023-04-21T08:16:22;101380.38;;;10.75;77.26
30614;BME280;17381;51.690;5.270;2023-04-21T08:19:24;101379.38;;;10.82;76.81
30614;BME280;17381;51.690;5.270;2023-04-21T08:22:15;101352.31;;;10.77;76.73
30614;BME280;17381;51.690;5.270;2023-04-21T08:25:20;101359.00;;;10.93;75.38
30614;BME280;17381;51.690;5.270;2023-04-21T08:28:05;101374.66;;;10.99;76.34
30614;BME280;17381;51.690;5.270;2023-04-21T08:31:02;101377.91;;;11.12;76.31
30614;BME280;17381;51.690;5.270;2023-04-21T08:33:45;101372.44;;;11.23;76.06
30614;BME280;17381;51.690;5.270;2023-04-21T08:36:26;101367.00;;;11.30;75.75
30614;BME280;17381;51.690;5.270;2023-04-21T08:39:04;101377.31;;;11.43;75.27
30614;BME280;17381;51.690;5.270;2023-04-21T08:41:36;101372.69;;;11.54;74.86
30614;BME280;17381;51.690;5.270;2023-04-21T08:44:23;101363.56;;;11.69;74.75
30614;BME280;17381;51.690;5.270;2023-04-21T08:46:55;101319.13;;;11.56;74.37
30614;BME280;17381;51.690;5.270;2023-04-21T08:49:34;101366.53;;;11.95;72.88
30614;BME280;17381;51.690;5.270;2023-04-21T08:52:21;101316.69;;;11.86;73.02
30614;BME280;17381;51.690;5.270;2023-04-21T08:54:51;101349.94;;;12.62;72.14
30614;BME280;17381;51.690;5.270;2023-04-21T08:57:34;101362.84;;;13.38;70.16
30614;BME280;17381;51.690;5.270;2023-04-21T09:00:16;101361.28;;;13.90;66.78
30614;BME280;17381;51.690;5.270;2023-04-21T09:03:03;101346.59;;;13.82;66.81
30614;BME280;17381;51.690;5.270;2023-04-21T09:06:02;101354.22;;;14.46;64.40
30614;BME280;17381;51.690;5.270;2023-04-21T09:08:53;101349.06;;;14.93;63.53
30614;BME280;17381;51.690;5.270;2023-04-21T09:11:22;101355.53;;;14.84;63.73
30614;BME280;17381;51.690;5.270;2023-04-21T09:14:04;101324.66;;;14.85;62.99
30614;BME280;17381;51.690;5.270;2023-04-21T09:16:43;101351.03;;;14.88;63.25
30614;BME280;17381;51.690;5.270;2023-04-21T09:19:31;101352.84;;;15.11;62.43
30614;BME280;17381;51.690;5.270;2023-04-21T09:22:29;101341.56;;;15.05;62.01
30614;BME280;17381;51.690;5.270;2023-04-21T09:25:04;101313.59;;;15.22;61.69
30614;BME280;17381;51.690;5.270;2023-04-21T09:27:58;101348.25;;;15.39;60.92
30614;BME280;17381;51.690;5.270;2023-04-21T09:30:43;101342.97;;;15.61;60.79
30614;BME280;17381;51.690;5.270;2023-04-21T09:33:37;101347.03;;;16.16;61.01
30614;BME280;17381;51.690;5.270;2023-04-21T09:36:29;101341.06;;;16.10;58.86
30614;BME280;17381;51.690;5.270;2023-04-21T09:41:54;101340.81;;;16.17;59.08
30614;BME280;17381;51.690;5.270;2023-04-21T09:44:29;101334.75;;;16.13;59.04
30614;BME280;17381;51.690;5.270;2023-04-21T09:47:00;101343.13;;;16.04;58.29
30614;BME280;17381;51.690;5.270;2023-04-21T09:49:38;101337.41;;;16.13;59.16
30614;BME280;17381;51.690;5.270;2023-04-21T09:52:23;101332.00;;;16.36;58.66
30614;BME280;17381;51.690;5.270;2023-04-21T09:55:10;101311.06;;;16.30;58.52
30614;BME280;17381;51.690;5.270;2023-04-21T09:57:45;101316.09;;;15.94;57.78
30614;BME280;17381;51.690;5.270;2023-04-21T10:00:49;101333.94;;;15.90;58.93
30614;BME280;17381;51.690;5.270;2023-04-21T10:03:26;101328.50;;;15.94;59.43
30614;BME280;17381;51.690;5.270;2023-04-21T10:05:59;101327.69;;;16.13;58.72
30614;BME280;17381;51.690;5.270;2023-04-21T10:09:21;101337.13;;;15.77;58.70
30614;BME280;17381;51.690;5.270;2023-04-21T10:12:00;101330.59;;;15.85;59.68
30614;BME280;17381;51.690;5.270;2023-04-21T10:15:05;101318.19;;;16.50;59.44
30614;BME280;17381;51.690;5.270;2023-04-21T10:19:11;101313.56;;;17.15;57.85
30614;BME280;17381;51.690;5.270;2023-04-21T10:22:11;101308.84;;;17.22;56.25
30614;BME280;17381;51.690;5.270;2023-04-21T10:25:17;101307.59;;;17.10;54.80
30614;BME280;17381;51.690;5.270;2023-04-21T10:27:48;101286.03;;;16.97;55.60
30614;BME280;17381;51.690;5.270;2023-04-21T10:30:24;101293.16;;;17.16;55.75
30614;BME280;17381;51.690;5.270;2023-04-21T10:33:13;101295.25;;;17.47;55.72
30614;BME280;17381;51.690;5.270;2023-04-21T10:36:41;101290.88;;;18.01;54.97
30614;BME280;17381;51.690;5.270;2023-04-21T10:42:40;101270.38;;;17.86;53.17
30614;BME280;17381;51.690;5.270;2023-04-21T10:45:40;101263.28;;;18.04;53.34
30614;BME280;17381;51.690;5.270;2023-04-21T10:48:38;101253.97;;;18.30;52.65
30614;BME280;17381;51.690;5.270;2023-04-21T10:55:17;101261.47;;;18.22;51.76
30614;BME280;17381;51.690;5.270;2023-04-21T10:58:10;101255.34;;;18.55;52.35
30614;BME280;17381;51.690;5.270;2023-04-21T11:01:02;101214.59;;;18.70;51.00
30614;BME280;17381;51.690;5.270;2023-04-21T11:03:59;101244.59;;;19.23;51.19
30614;BME280;17381;51.690;5.270;2023-04-21T11:30:19;101190.41;;;21.43;43.83
30614;BME280;17381;51.690;5.270;2023-04-21T11:33:27;101197.84;;;21.24;44.03
30614;BME280;17381;51.690;5.270;2023-04-21T11:36:46;101187.44;;;20.92;43.05
30614;BME280;17381;51.690;5.270;2023-04-21T12:14:24;101157.81;;;20.95;44.66
30614;BME280;17381;51.690;5.270;2023-04-21T12:18:01;101163.53;;;21.45;44.99
30614;BME280;17381;51.690;5.270;2023-04-21T12:20:31;101151.75;;;21.87;43.90
30614;BME280;17381;51.690;5.270;2023-04-21T12:32:03;101137.69;;;22.86;38.37
30614;BME280;17381;51.690;5.270;2023-04-21T13:10:19;101099.41;;;22.09;40.95
30614;BME280;17381;51.690;5.270;2023-04-21T13:13:00;101094.50;;;22.03;41.91
30614;BME280;17381;51.690;5.270;2023-04-21T13:15:54;101085.69;;;21.75;41.31
30614;BME280;17381;51.690;5.270;2023-04-21T13:18:49;101081.66;;;21.42;41.10
30614;BME280;17381;51.690;5.270;2023-04-21T13:21:39;101055.06;;;21.53;42.96
30614;BME280;17381;51.690;5.270;2023-04-21T14:00:47;101042.69;;;23.49;39.86
30614;BME280;17381;51.690;5.270;2023-04-21T14:08:35;101021.47;;;23.22;39.01
30614;BME280;17381;51.690;5.270;2023-04-21T14:36:00;100997.38;;;20.97;43.52
30614;BME280;17381;51.690;5.270;2023-04-21T14:43:05;100984.13;;;20.68;43.61
30614;BME280;17381;51.690;5.270;2023-04-21T14:46:15;100996.22;;;20.32;44.76
30614;BME280;17381;51.690;5.270;2023-04-21T14:49:43;100989.34;;;20.28;45.78
30614;BME280;17381;51.690;5.270;2023-04-21T14:52:46;100976.78;;;20.30;45.03
30614;BME280;17381;51.690;5.270;2023-04-21T15:00:08;100949.78;;;20.35;45.84
30614;BME280;17381;51.690;5.270;2023-04-21T15:06:43;100926.34;;;20.25;44.87
30614;BME280;17381;51.690;5.270;2023-04-21T15:09:39;100940.16;;;20.32;45.24
30614;BME280;17381;51.690;5.270;2023-04-21T15:37:20;100898.19;;;22.39;42.69
30614;BME280;17381;51.690;5.270;2023-04-21T15:43:25;100900.81;;;21.78;41.43
30614;BME280;17381;51.690;5.270;2023-04-21T15:46:20;100898.50;;;21.35;41.94
30614;BME280;17381;51.690;5.270;2023-04-21T15:49:21;100877.41;;;20.92;42.21
30614;BME280;17381;51.690;5.270;2023-04-21T15:53:04;100842.03;;;20.48;43.80
30614;BME280;17381;51.690;5.270;2023-04-21T15:56:25;100871.22;;;20.79;44.43
30614;BME280;17381;51.690;5.270;2023-04-21T16:06:04;100857.44;;;20.45;44.33
30614;BME280;17381;51.690;5.270;2023-04-21T16:31:23;100818.72;;;19.71;45.67
30614;BME280;17381;51.690;5.270;2023-04-21T16:34:11;100811.00;;;19.52;46.44
30614;BME280;17381;51.690;5.270;2023-04-21T16:37:30;100813.03;;;19.34;47.28
30614;BME280;17381;51.690;5.270;2023-04-21T16:40:45;100787.53;;;19.01;47.75
30614;BME280;17381;51.690;5.270;2023-04-21T16:46:49;100825.69;;;18.87;48.26
30614;BME280;17381;51.690;5.270;2023-04-21T16:49:53;100820.97;;;18.77;48.20
30614;BME280;17381;51.690;5.270;2023-04-21T16:53:02;100814.38;;;18.68;48.54
30614;BME280;17381;51.690;5.270;2023-04-21T17:11:30;100771.53;;;18.12;49.68
30614;BME280;17381;51.690;5.270;2023-04-21T17:14:32;100768.28;;;18.07;50.12
30614;BME280;17381;51.690;5.270;2023-04-21T17:17:18;100756.97;;;18.03;50.49
30614;BME280;17381;51.690;5.270;2023-04-21T17:20:16;100755.28;;;18.02;50.70
30614;BME280;17381;51.690;5.270;2023-04-21T17:23:06;100708.78;;;17.78;50.83
30614;BME280;17381;51.690;5.270;2023-04-21T17:26:12;100699.47;;;17.71;50.99
30614;BME280;17381;51.690;5.270;2023-04-21T17:29:10;100736.19;;;17.80;51.05
30614;BME280;17381;51.690;5.270;2023-04-21T17:32:08;100730.31;;;17.73;51.68
30614;BME280;17381;51.690;5.270;2023-04-21T17:35:03;100720.84;;;17.53;51.73
30614;BME280;17381;51.690;5.270;2023-04-21T17:37:51;100734.81;;;17.41;51.88
30614;BME280;17381;51.690;5.270;2023-04-21T17:56:09;100830.44;;;16.22;53.59
30614;BME280;17381;51.690;5.270;2023-04-21T17:58:58;100801.19;;;15.68;54.37
30614;BME280;17381;51.690;5.270;2023-04-21T18:01:44;100771.28;;;15.47;55.77
30614;BME280;17381;51.690;5.270;2023-04-21T18:04:35;100714.41;;;15.18;56.07
30614;BME280;17381;51.690;5.270;2023-04-21T18:07:42;100719.03;;;14.94;56.83
30614;BME280;17381;51.690;5.270;2023-04-21T18:10:32;100743.84;;;14.73;56.64
30614;BME280;17381;51.690;5.270;2023-04-21T18:25:46;100756.47;;;14.46;56.99
30614;BME280;17381;51.690;5.270;2023-04-21T18:28:22;100746.88;;;14.43;57.10
30614;BME280;17381;51.690;5.270;2023-04-21T18:31:08;100722.28;;;14.21;57.67
30614;BME280;17381;51.690;5.270;2023-04-21T18:34:00;100782.03;;;14.45;57.56
30614;BME280;17381;51.690;5.270;2023-04-21T18:37:10;100789.19;;;14.43;57.74
30614;BME280;17381;51.690;5.270;2023-04-21T18:40:02;100804.50;;;14.35;57.74
30614;BME280;17381;51.690;5.270;2023-04-21T18:45:42;100808.22;;;14.31;57.96
30614;BME280;17381;51.690;5.270;2023-04-21T18:48:41;100819.59;;;14.33;58.07
30614;BME280;17381;51.690;5.270;2023-04-21T18:51:52;100827.72;;;14.28;57.97
30614;BME280;17381;51.690;5.270;2023-04-21T18:54:44;100813.34;;;14.13;57.68
30614;BME280;17381;51.690;5.270;2023-04-21T18:57:51;100827.50;;;14.12;58.12
30614;BME280;17381;51.690;5.270;2023-04-21T19:00:32;100815.31;;;14.08;58.13
30614;BME280;17381;51.690;5.270;2023-04-21T19:03:37;100806.75;;;14.02;58.36
30614;BME280;17381;51.690;5.270;2023-04-21T19:06:27;100810.50;;;13.96;58.71
30614;BME280;17381;51.690;5.270;2023-04-21T19:08:53;100766.66;;;13.70;58.84
30614;BME280;17381;51.690;5.270;2023-04-21T19:43:23;100781.81;;;13.65;61.22
30614;BME280;17381;51.690;5.270;2023-04-21T19:57:13;100786.13;;;13.67;62.13
30614;BME280;17381;51.690;5.270;2023-04-21T20:00:11;100786.94;;;13.69;61.86
30614;BME280;17381;51.690;5.270;2023-04-21T20:02:55;100774.19;;;13.57;62.11
30614;BME280;17381;51.690;5.270;2023-04-21T20:05:53;100789.16;;;13.58;61.69
30614;BME280;17381;51.690;5.270;2023-04-21T20:08:54;100789.25;;;13.55;61.96
30614;BME280;17381;51.690;5.270;2023-04-21T20:12:00;100817.81;;;13.67;62.16
30614;BME280;17381;51.690;5.270;2023-04-21T20:15:04;100898.81;;;13.68;62.17
30614;BME280;17381;51.690;5.270;2023-04-21T20:17:45;100910.38;;;13.64;60.68
30614;BME280;17381;51.690;5.270;2023-04-21T20:20:53;100820.59;;;12.67;62.23
30614;BME280;17381;51.690;5.270;2023-04-21T20:26:31;100937.88;;;13.08;65.38
30614;BME280;17381;51.690;5.270;2023-04-21T20:29:45;100936.25;;;12.79;67.56
30614;BME280;17381;51.690;5.270;2023-04-21T20:36:43;100878.41;;;11.62;71.85
30614;BME280;17381;51.690;5.270;2023-04-21T20:40:01;100932.47;;;11.74;73.28
30614;BME280;17381;51.690;5.270;2023-04-21T20:43:08;100947.03;;;11.56;74.81
30614;BME280;17381;51.690;5.270;2023-04-21T20:50:10;100917.84;;;11.34;77.04
30614;BME280;17381;51.690;5.270;2023-04-21T21:00:48;100931.72;;;10.72;81.99
30614;BME280;17381;51.690;5.270;2023-04-21T21:03:32;100926.19;;;10.48;83.02
30614;BME280;17381;51.690;5.270;2023-04-21T21:06:32;100923.75;;;10.41;83.92
30614;BME280;17381;51.690;5.270;2023-04-21T21:09:05;100916.19;;;10.25;84.42
30614;BME280;17381;51.690;5.270;2023-04-21T21:11:31;100908.38;;;10.22;85.13
30614;BME280;17381;51.690;5.270;2023-04-21T21:45:32;100848.00;;;10.19;83.70
30614;BME280;17381;51.690;5.270;2023-04-21T21:48:07;100836.63;;;10.20;83.39
30614;BME280;17381;51.690;5.270;2023-04-21T22:01:25;100813.28;;;10.08;82.74
30614;BME280;17381;51.690;5.270;2023-04-21T22:04:03;100822.84;;;10.11;82.36
30614;BME280;17381;51.690;5.270;2023-04-21T22:07:00;100819.38;;;10.10;82.68
30614;BME280;17381;51.690;5.270;2023-04-21T22:09:38;100810.72;;;10.05;82.68
